Time;durP1;ratioP1;P1;durP2;ratioP2;P2;SDS_P1;SDS_P2;PMS_P1;PMS_P2;Temp;Humidity;BMP_temperature;BMP_pressure;BME280_temperature;BME280_humidity;BME280_pressure;Samples;Min_cycle;Max_cycle;Signal;HPM_P1;HPM_P2
2023/12/07 00:01:31;;;;;;;38.90;25.48;;;;;;;17.08;45.44;93239.28;4915002;28;20073;-90
2023/12/07 00:03:57;;;;;;;27.90;18.50;;;;;;;16.95;44.85;93234.38;4950468;28;20050;-89
2023/12/07 00:06:24;;;;;;;44.33;28.98;;;;;;;17.09;45.46;93235.31;4946622;28;20043;-91
2023/12/07 00:08:50;;;;;;;32.25;20.33;;;;;;;17.00;44.85;93236.34;4946134;28;20046;-90
2023/12/07 00:11:15;;;;;;;27.17;18.83;;;;;;;16.97;44.96;93236.59;4947997;28;20511;-90
2023/12/07 00:13:41;;;;;;;33.65;23.25;;;;;;;17.04;45.49;93236.81;4936830;28;20038;-89
2023/12/07 00:16:06;;;;;;;28.35;20.05;;;;;;;17.01;45.06;93232.34;4925307;28;20085;-89
2023/12/07 00:18:32;;;;;;;34.15;22.02;;;;;;;17.05;45.70;93238.31;4966575;22;20080;-90
2023/12/07 00:20:57;;;;;;;30.23;21.17;;;;;;;17.03;45.27;93242.78;5061323;28;20053;-89
2023/12/07 00:23:23;;;;;;;34.85;23.08;;;;;;;16.92;45.07;93240.09;5051750;28;20040;-89
2023/12/07 00:25:49;;;;;;;38.92;25.48;;;;;;;16.97;45.46;93239.34;5076299;28;20072;-89
2023/12/07 00:28:14;;;;;;;30.65;21.23;;;;;;;16.96;45.68;93243.31;5067067;28;20326;-89
2023/12/07 00:30:40;;;;;;;35.22;21.27;;;;;;;16.99;45.74;93245.78;5097798;28;20027;-89
2023/12/07 00:33:07;;;;;;;37.10;24.83;;;;;;;17.00;45.53;93241.06;5076376;28;20030;-90
2023/12/07 00:35:32;;;;;;;31.67;19.73;;;;;;;16.96;45.28;93243.31;5081662;28;20036;-89
2023/12/07 00:37:57;;;;;;;26.70;18.95;;;;;;;17.03;45.50;93245.50;5056201;28;20065;-90
2023/12/07 00:40:23;;;;;;;47.08;29.58;;;;;;;17.07;45.71;93246.72;5034482;28;20061;-89
2023/12/07 00:42:49;;;;;;;25.23;17.67;;;;;;;16.98;45.35;93246.28;5065730;28;20040;-89
2023/12/07 00:45:14;;;;;;;28.92;17.63;;;;;;;16.99;45.28;93258.69;5031978;22;20580;-89
2023/12/07 00:47:42;;;;;;;29.77;18.25;;;;;;;16.97;44.82;93248.25;5001762;28;20037;-89
2023/12/07 00:50:14;;;;;;;30.73;20.02;;;;;;;17.01;45.37;93253.47;5014688;23;20075;-89
2023/12/07 00:52:39;;;;;;;35.83;23.92;;;;;;;17.02;45.27;93255.69;5034983;28;20054;-89
2023/12/07 00:55:07;;;;;;;35.90;22.10;;;;;;;16.99;45.94;93266.88;5029569;28;20062;-89
2023/12/07 00:57:32;;;;;;;28.10;18.27;;;;;;;17.01;45.38;93250.72;5044690;22;20070;-89
2023/12/07 01:00:03;;;;;;;43.08;27.83;;;;;;;17.04;45.39;93257.91;5049269;22;21087;-90
2023/12/07 01:02:29;;;;;;;30.88;20.17;;;;;;;16.95;45.90;93263.66;5030008;28;20663;-89
2023/12/07 01:04:54;;;;;;;38.92;24.33;;;;;;;17.00;45.69;93262.91;5055148;28;20063;-88
2023/12/07 01:07:21;;;;;;;26.63;19.17;;;;;;;16.95;45.72;93263.66;5073331;28;20025;-89
2023/12/07 01:09:46;;;;;;;27.88;17.85;;;;;;;16.97;45.33;93256.47;5030545;28;20193;-89
2023/12/07 01:12:15;;;;;;;28.13;17.58;;;;;;;16.98;45.12;93246.28;5024298;28;20466;-89
2023/12/07 01:14:41;;;;;;;38.63;23.85;;;;;;;17.04;45.90;93255.94;5032532;28;20035;-89
2023/12/07 01:17:06;;;;;;;43.28;27.73;;;;;;;17.05;45.71;93262.88;5029972;28;20036;-89
2023/12/07 01:19:31;;;;;;;33.67;20.83;;;;;;;17.00;45.33;93260.91;5047974;28;20039;-89
2023/12/07 01:21:57;;;;;;;27.55;18.20;;;;;;;16.98;44.79;93262.66;5052096;28;20040;-89
2023/12/07 01:24:22;;;;;;;30.50;20.10;;;;;;;17.06;45.28;93266.34;5046833;28;20032;-89
2023/12/07 01:26:48;;;;;;;25.52;17.20;;;;;;;16.99;44.89;93273.09;5061868;28;20025;-90
2023/12/07 01:29:14;;;;;;;27.25;18.08;;;;;;;16.97;45.13;93267.38;5043717;28;20467;-91
2023/12/07 01:31:40;;;;;;;29.88;19.58;;;;;;;17.00;45.25;93274.56;5077256;28;20029;-89
2023/12/07 01:34:05;;;;;;;30.35;19.02;;;;;;;17.02;44.99;93274.06;5039782;28;20028;-89
2023/12/07 01:36:31;;;;;;;42.20;26.38;;;;;;;16.97;45.17;93272.09;5073931;28;20040;-89
2023/12/07 01:38:56;;;;;;;29.67;17.80;;;;;;;16.96;45.48;93265.91;5032743;28;20069;-89
2023/12/07 01:43:47;;;;;;;32.20;22.33;;;;;;;17.06;45.64;93278.03;5046049;22;20064;-90
2023/12/07 01:46:12;;;;;;;34.60;23.40;;;;;;;17.07;45.68;93273.31;5001378;28;20056;-90
2023/12/07 01:48:40;;;;;;;39.53;25.20;;;;;;;17.08;45.77;93280.25;4978864;28;20048;-89
2023/12/07 01:51:06;;;;;;;32.67;21.30;;;;;;;17.06;45.56;93282.75;4972098;28;20128;-90
2023/12/07 01:53:31;;;;;;;25.77;16.85;;;;;;;17.00;44.60;93282.75;4995509;28;20631;-87
2023/12/07 01:55:56;;;;;;;44.25;28.75;;;;;;;17.06;45.98;93283.47;4997569;28;20049;-87
2023/12/07 01:58:23;;;;;;;24.65;16.15;;;;;;;16.99;44.60;93281.28;4998614;28;20049;-87
2023/12/07 02:00:49;;;;;;;22.63;16.27;;;;;;;16.97;45.06;93289.22;4982067;28;20392;-88
2023/12/07 02:03:15;;;;;;;33.75;21.10;;;;;;;17.05;45.60;93292.19;5005122;28;20041;-87
2023/12/07 02:05:42;;;;;;;24.30;16.60;;;;;;;16.97;45.10;93294.69;4983359;28;20617;-87
2023/12/07 02:08:08;;;;;;;27.80;19.90;;;;;;;16.99;45.49;93286.00;4968991;28;20049;-88
2023/12/07 02:10:33;;;;;;;22.45;15.98;;;;;;;16.94;44.96;93294.94;4946182;28;20060;-86
2023/12/07 02:12:58;;;;;;;22.42;16.42;;;;;;;16.94;44.83;93294.94;4923070;28;20049;-86
2023/12/07 02:15:24;;;;;;;24.05;15.70;;;;;;;16.86;45.09;93294.00;4916801;28;20050;-87
2023/12/07 02:18:12;;;;;;;33.38;21.13;;;;;;;16.99;45.19;93296.91;4902627;28;20042;-87
2023/12/07 02:21:00;;;;;;;25.30;16.30;;;;;;;16.94;45.46;93298.41;4945272;28;20532;-88
2023/12/07 02:23:25;;;;;;;39.83;27.35;;;;;;;17.01;45.94;93300.63;4921937;28;20038;-88
2023/12/07 02:29:12;;;;;;;24.70;16.25;;;;;;;16.93;45.56;93310.59;4959512;28;20092;-86
2023/12/07 02:31:37;;;;;;;23.00;16.95;;;;;;;16.90;45.14;93316.31;4930448;28;20543;-89
2023/12/07 02:34:03;;;;;;;33.05;20.77;;;;;;;16.98;45.81;93303.63;4946638;28;20116;-86
2023/12/07 02:36:29;;;;;;;24.67;16.40;;;;;;;16.91;45.24;93310.34;4950860;28;21338;-88
2023/12/07 02:38:56;;;;;;;34.20;22.92;;;;;;;16.99;45.86;93299.66;4911263;28;20050;-87
2023/12/07 02:41:22;;;;;;;23.38;15.25;;;;;;;16.97;45.51;93310.31;4918862;28;20123;-87
2023/12/07 02:43:47;;;;;;;28.73;18.98;;;;;;;16.93;44.98;93307.13;4956579;28;20181;-87
2023/12/07 02:46:13;;;;;;;20.55;15.73;;;;;;;16.90;45.19;93314.31;4971997;28;20103;-87
2023/12/07 02:48:38;;;;;;;35.15;23.48;;;;;;;16.98;45.60;93312.56;4968564;28;20099;-87
2023/12/07 02:51:04;;;;;;;24.75;16.80;;;;;;;16.89;45.33;93312.84;4965408;28;20045;-87
2023/12/07 02:53:29;;;;;;;36.42;24.30;;;;;;;17.00;45.86;93322.97;4997480;28;20048;-87
2023/12/07 02:55:54;;;;;;;33.20;22.35;;;;;;;16.97;45.82;93323.97;5009889;28;20314;-87
2023/12/07 02:58:20;;;;;;;21.02;15.10;;;;;;;16.90;45.22;93324.50;5003230;28;20875;-88
2023/12/07 03:00:46;;;;;;;28.83;18.88;;;;;;;16.87;45.79;93329.00;5020838;28;20044;-87
2023/12/07 03:03:12;;;;;;;24.70;16.23;;;;;;;16.86;45.09;93327.50;5017444;28;20067;-87
2023/12/07 03:05:37;;;;;;;44.78;30.05;;;;;;;16.96;46.29;93327.97;4992431;28;20036;-87
2023/12/07 03:08:03;;;;;;;30.75;20.95;;;;;;;16.99;45.79;93332.41;4993981;28;20162;-88
2023/12/07 03:10:28;;;;;;;29.65;20.08;;;;;;;17.01;45.39;93329.94;5019992;28;20040;-87
2023/12/07 03:12:54;;;;;;;24.42;15.95;;;;;;;16.98;45.50;93345.31;5034162;28;20521;-90
2023/12/07 03:15:19;;;;;;;41.25;24.88;;;;;;;17.00;45.68;93351.03;5048508;28;20008;-89
2023/12/07 03:17:45;;;;;;;27.55;18.20;;;;;;;16.99;45.65;93349.53;5048600;28;20920;-87
2023/12/07 03:20:10;;;;;;;25.75;17.05;;;;;;;16.97;45.34;93354.75;5035149;28;20801;-87
2023/12/07 03:22:36;;;;;;;27.10;18.25;;;;;;;16.96;45.40;93356.00;5004702;28;20032;-87
2023/12/07 03:25:01;;;;;;;41.90;25.17;;;;;;;17.00;46.06;93348.28;5014014;28;20028;-87
2023/12/07 03:27:28;;;;;;;32.65;21.85;;;;;;;17.04;45.96;93350.78;5031842;28;20116;-88
2023/12/07 03:29:53;;;;;;;32.03;21.35;;;;;;;17.04;45.78;93351.50;5005142;28;20045;-87
2023/12/07 03:32:19;;;;;;;27.23;19.08;;;;;;;16.97;44.93;93354.75;4993989;28;20046;-88
2023/12/07 03:34:44;;;;;;;40.97;26.85;;;;;;;17.02;45.60;93359.47;4976577;28;20540;-88
2023/12/07 03:37:09;;;;;;;28.10;18.85;;;;;;;16.97;45.31;93367.66;5030455;28;20033;-87
2023/12/07 03:39:35;;;;;;;39.72;27.85;;;;;;;17.00;46.12;93361.94;5003963;28;20052;-87
2023/12/07 03:42:01;;;;;;;45.47;29.77;;;;;;;17.03;45.90;93368.41;4985604;28;20052;-87
2023/12/07 03:44:26;;;;;;;25.42;17.10;;;;;;;16.96;45.36;93369.66;4968577;28;20091;-88
2023/12/07 03:46:52;;;;;;;27.17;17.05;;;;;;;16.99;45.03;93373.38;4979732;28;21660;-87
2023/12/07 03:49:18;;;;;;;23.75;16.02;;;;;;;16.88;45.19;93370.69;4982646;28;21196;-88
2023/12/07 03:51:46;;;;;;;40.45;25.10;;;;;;;17.00;46.12;93374.88;4978446;28;20317;-88
2023/12/07 03:54:11;;;;;;;21.83;15.98;;;;;;;16.94;45.57;93372.16;4974750;28;20512;-87
2023/12/07 03:56:37;;;;;;;40.42;24.60;;;;;;;17.02;46.07;93380.56;4970249;28;20053;-88
2023/12/07 03:59:02;;;;;;;20.60;15.10;;;;;;;17.04;45.24;93386.28;4988415;28;20032;-88
2023/12/07 04:01:28;;;;;;;26.73;18.17;;;;;;;16.98;45.08;93389.03;5035022;28;20047;-87
2023/12/07 04:03:55;;;;;;;26.27;15.75;;;;;;;17.01;45.44;93381.81;5029396;28;20590;-89
2023/12/07 04:06:21;;;;;;;19.75;14.35;;;;;;;16.98;44.97;93391.00;5030234;28;20024;-87
2023/12/07 04:08:46;;;;;;;23.95;15.60;;;;;;;16.99;45.15;93392.50;5027105;28;20069;-88
2023/12/07 04:11:13;;;;;;;22.42;14.68;;;;;;;16.99;45.27;93389.75;4994092;28;20040;-87
2023/12/07 04:13:38;;;;;;;23.02;15.63;;;;;;;16.96;45.28;93396.97;5030307;28;21237;-87
2023/12/07 04:16:04;;;;;;;45.15;27.58;;;;;;;17.04;46.12;93399.94;5027197;28;20096;-87
2023/12/07 04:18:29;;;;;;;23.52;16.05;;;;;;;17.00;44.60;93402.16;4996744;28;20379;-87
2023/12/07 04:20:55;;;;;;;25.58;15.57;;;;;;;16.98;45.39;93401.94;5003008;28;20057;-87
2023/12/07 04:23:20;;;;;;;37.05;23.13;;;;;;;16.98;45.48;93410.13;4978843;28;20501;-88
2023/12/07 04:25:45;;;;;;;27.17;18.23;;;;;;;16.94;45.72;93418.56;4980739;28;20084;-87
2023/12/07 04:28:11;;;;;;;24.27;15.32;;;;;;;16.92;44.76;93401.94;4977339;28;20150;-88
2023/12/07 04:30:37;;;;;;;28.67;17.70;;;;;;;16.98;44.96;93410.13;4983491;28;20048;-90
2023/12/07 04:33:02;;;;;;;27.92;17.30;;;;;;;16.88;45.12;93406.94;4978791;28;20037;-89
2023/12/07 04:35:28;;;;;;;32.55;20.15;;;;;;;16.95;45.46;93408.38;4973577;28;21545;-90
2023/12/07 04:37:55;;;;;;;45.58;29.75;;;;;;;16.98;46.49;93412.84;4955394;28;20100;-87
2023/12/07 04:40:21;;;;;;;51.67;36.60;;;;;;;17.05;45.86;93415.06;4943800;28;20077;-88
2023/12/07 04:42:46;;;;;;;37.33;24.10;;;;;;;17.04;46.13;93419.03;4963059;28;20046;-88
2023/12/07 04:45:13;;;;;;;50.00;30.40;;;;;;;17.04;45.33;93419.03;4966217;28;22006;-91
2023/12/07 04:47:38;;;;;;;29.30;19.20;;;;;;;16.90;45.32;93428.25;4955101;28;20037;-91
2023/12/07 04:50:04;;;;;;;46.08;27.27;;;;;;;16.95;45.32;93422.78;4979881;28;20072;-89
2023/12/07 04:52:30;;;;;;;82.65;30.92;;;;;;;17.01;44.98;93425.50;4966439;28;20045;-89
2023/12/07 04:54:55;;;;;;;54.92;27.27;;;;;;;16.98;45.45;93427.25;4947706;28;20138;-90
2023/12/07 04:57:21;;;;;;;49.83;28.48;;;;;;;17.01;45.35;93420.03;4932137;28;20105;-87
2023/12/07 04:59:46;;;;;;;79.53;49.85;;;;;;;16.98;45.53;93431.97;4934551;28;20052;-87
2023/12/07 05:02:15;;;;;;;100.70;58.10;;;;;;;17.07;45.22;93429.72;4905921;28;20050;-90
2023/12/07 05:04:40;;;;;;;94.68;51.67;;;;;;;17.00;45.93;93427.50;4916295;28;20128;-91
2023/12/07 05:07:06;;;;;;;87.70;53.08;;;;;;;16.99;45.17;93415.09;4927816;28;20133;-87
2023/12/07 05:09:32;;;;;;;83.30;47.13;;;;;;;16.98;45.75;93427.25;4948043;28;20205;-87
2023/12/07 05:11:58;;;;;;;141.88;80.55;;;;;;;16.97;45.13;93419.56;4933419;28;20048;-87
2023/12/07 05:14:23;;;;;;;193.32;105.78;;;;;;;17.01;45.77;93420.78;4966437;28;20052;-87
2023/12/07 05:16:52;;;;;;;182.55;107.78;;;;;;;16.86;43.30;93431.25;4974124;28;21635;-87
2023/12/07 05:19:20;;;;;;;163.02;99.53;;;;;;;16.73;42.09;93425.56;4929578;28;20053;-89
2023/12/07 05:21:46;;;;;;;173.25;102.13;;;;;;;16.79;42.75;93427.06;4960219;28;20045;-87
2023/12/07 05:24:12;;;;;;;175.40;101.32;;;;;;;16.71;42.13;93441.69;4943246;28;20646;-88
2023/12/07 05:26:38;;;;;;;169.48;96.32;;;;;;;16.75;42.41;93439.47;4995372;28;20046;-88
2023/12/07 05:29:04;;;;;;;184.05;105.47;;;;;;;16.74;41.81;93425.06;4979284;28;20055;-88
2023/12/07 05:31:29;;;;;;;108.72;62.00;;;;;;;16.52;38.89;93429.78;4976341;28;20051;-88
2023/12/07 05:33:55;;;;;;;102.18;51.72;;;;;;;16.37;37.64;93433.53;5022299;28;20051;-89
2023/12/07 05:36:21;;;;;;;95.10;49.30;;;;;;;16.24;37.64;93441.44;5043148;28;20302;-89
2023/12/07 05:38:47;;;;;;;94.40;49.65;;;;;;;16.29;37.77;93442.69;5000273;28;20040;-87
2023/12/07 05:41:14;;;;;;;93.07;52.22;;;;;;;16.32;38.01;93450.63;5006651;28;20528;-89
2023/12/07 05:43:42;;;;;;;112.43;59.75;;;;;;;16.40;38.86;93448.16;4996364;28;21325;-89
2023/12/07 05:46:07;;;;;;;131.68;71.25;;;;;;;16.54;40.00;93447.16;4976420;28;20045;-90
2023/12/07 05:48:33;;;;;;;186.40;104.63;;;;;;;16.60;40.89;93455.34;4982282;28;20090;-91
2023/12/07 05:50:58;;;;;;;249.25;143.27;;;;;;;16.57;41.83;93456.34;4985768;28;20525;-90
2023/12/07 05:53:26;;;;;;;260.73;154.35;;;;;;;16.60;42.59;93458.06;5012472;28;20328;-90
2023/12/07 05:55:51;;;;;;;288.40;164.25;;;;;;;16.65;42.16;93455.38;5015223;28;20025;-91
2023/12/07 05:58:20;;;;;;;332.42;209.40;;;;;;;16.67;42.39;93463.06;5046291;28;20074;-93
2023/12/07 06:00:46;;;;;;;276.35;168.18;;;;;;;16.74;42.08;93463.28;5018330;28;20032;-93
2023/12/07 06:03:15;;;;;;;316.85;200.85;;;;;;;16.76;41.86;93469.00;4995720;28;20174;-90
2023/12/07 06:05:40;;;;;;;285.17;176.88;;;;;;;16.82;42.19;93470.97;4976817;28;20037;-92
2023/12/07 06:08:06;;;;;;;217.40;130.48;;;;;;;16.71;42.00;93479.91;4945093;28;20646;-93
2023/12/07 06:10:32;;;;;;;222.75;125.38;;;;;;;16.55;40.31;93475.19;4931668;28;20049;-89
2023/12/07 06:12:59;;;;;;;233.10;129.65;;;;;;;16.57;41.49;93476.19;4935840;28;20069;-90
2023/12/07 06:15:27;;;;;;;318.52;138.88;;;;;;;16.59;40.78;93479.16;4945998;28;20103;-94
2023/12/07 06:17:52;;;;;;;319.35;136.82;;;;;;;16.73;41.64;93482.88;4927501;28;20124;-90
2023/12/07 06:20:18;;;;;;;314.85;127.43;;;;;;;16.82;41.78;93479.16;4946309;28;20045;-91
2023/12/07 06:22:43;;;;;;;323.90;125.57;;;;;;;16.87;41.48;93468.25;4919642;28;21775;-90
2023/12/07 06:25:11;;;;;;;339.67;137.60;;;;;;;16.87;41.89;93472.97;4945100;28;20047;-90
2023/12/07 06:27:38;;;;;;;258.73;138.77;;;;;;;16.76;41.86;93481.91;4988780;28;20128;-91
2023/12/07 06:30:07;;;;;;;253.18;111.68;;;;;;;16.87;41.87;93478.41;4988496;28;20543;-89
2023/12/07 06:32:33;;;;;;;244.65;109.35;;;;;;;16.89;41.61;93479.38;5002600;28;20044;-87
2023/12/07 06:35:00;;;;;;;226.18;110.15;;;;;;;16.93;41.79;93482.63;5009570;28;20037;-90
2023/12/07 06:37:26;;;;;;;220.75;113.90;;;;;;;16.89;42.19;93482.13;4977754;28;21320;-85
2023/12/07 06:39:52;;;;;;;207.70;106.78;;;;;;;16.88;42.14;93485.38;4955847;28;20051;-90
2023/12/07 06:42:18;;;;;;;248.77;122.32;;;;;;;16.85;41.90;93489.84;4970479;28;20106;-91
2023/12/07 06:44:43;;;;;;;228.18;119.55;;;;;;;16.90;42.43;93480.13;5029078;28;20027;-91
2023/12/07 06:47:09;;;;;;;243.18;122.85;;;;;;;16.94;42.64;93489.56;5035046;28;20051;-90
2023/12/07 06:49:37;;;;;;;224.25;123.95;;;;;;;16.90;42.08;93496.50;5016547;28;20034;-89
2023/12/07 06:52:02;;;;;;;214.00;115.03;;;;;;;16.85;41.96;93486.38;5008265;28;20095;-90
2023/12/07 06:54:28;;;;;;;206.60;111.53;;;;;;;16.82;42.14;93481.91;4987980;28;20391;-89
2023/12/07 06:56:56;;;;;;;174.50;98.82;;;;;;;16.96;42.28;93484.34;5008265;28;21004;-90
2023/12/07 06:59:21;;;;;;;227.52;120.15;;;;;;;16.92;42.07;93483.09;5008103;28;20039;-87
2023/12/07 07:01:47;;;;;;;215.35;118.15;;;;;;;16.86;42.07;93491.31;5043911;28;20034;-90
2023/12/07 07:04:12;;;;;;;220.82;120.18;;;;;;;17.02;42.41;93496.00;5021382;28;20032;-89
2023/12/07 07:06:39;;;;;;;210.55;117.57;;;;;;;16.97;41.90;93502.22;4994507;28;20506;-89
2023/12/07 07:09:05;;;;;;;222.18;115.80;;;;;;;17.04;42.07;93509.16;4973236;28;20041;-86
2023/12/07 07:11:34;;;;;;;207.40;116.97;;;;;;;17.05;42.55;93502.47;4990681;28;20049;-87
2023/12/07 07:13:59;;;;;;;205.68;117.22;;;;;;;17.04;42.27;93509.16;4996431;28;20024;-88
2023/12/07 07:16:25;;;;;;;193.27;111.65;;;;;;;17.03;42.29;93494.78;4974722;28;20540;-87
2023/12/07 07:18:50;;;;;;;183.05;109.78;;;;;;;17.04;42.48;93509.91;4974506;28;20036;-89
2023/12/07 07:21:16;;;;;;;192.57;110.47;;;;;;;17.03;42.38;93494.03;4957364;28;20049;-87
2023/12/07 07:23:41;;;;;;;177.07;104.80;;;;;;;17.07;42.18;93508.19;4988047;28;20064;-89
2023/12/07 07:26:08;;;;;;;179.23;106.47;;;;;;;17.03;41.89;93507.69;4942695;28;20391;-88
2023/12/07 07:28:34;;;;;;;187.73;100.93;;;;;;;17.10;42.24;93521.56;4966580;28;20045;-90
2023/12/07 07:31:01;;;;;;;177.45;103.18;;;;;;;16.93;42.04;93520.09;4950396;28;20045;-88
2023/12/07 07:33:27;;;;;;;231.50;112.32;;;;;;;17.01;41.99;93515.63;4944074;28;20060;-89
2023/12/07 07:35:54;;;;;;;153.55;91.15;;;;;;;17.05;42.05;93508.66;4938948;28;20034;-89
2023/12/07 07:38:21;;;;;;;157.02;91.53;;;;;;;17.03;42.04;93505.69;4983991;28;20439;-89
2023/12/07 07:40:48;;;;;;;157.32;92.70;;;;;;;17.03;42.44;93511.16;4991807;28;20037;-92
2023/12/07 07:43:14;;;;;;;141.88;88.30;;;;;;;17.00;42.18;93508.69;4930648;28;20050;-89
2023/12/07 07:45:39;;;;;;;136.20;81.63;;;;;;;17.09;42.32;93511.16;4885635;28;20077;-90
2023/12/07 07:48:06;;;;;;;147.32;98.15;;;;;;;17.04;42.64;93512.66;4870226;28;20051;-89
2023/12/07 07:50:34;;;;;;;143.20;87.45;;;;;;;17.04;42.35;93509.91;4883442;28;20050;-88
2023/12/07 07:52:59;;;;;;;144.63;87.13;;;;;;;17.00;42.03;93512.16;4887865;28;20053;-90
2023/12/07 07:55:25;;;;;;;144.40;76.95;;;;;;;17.02;42.17;93506.19;4888971;28;20039;-89
2023/12/07 07:57:50;;;;;;;154.23;72.18;;;;;;;17.05;42.55;93507.94;4884874;28;20043;-89
2023/12/07 08:00:19;;;;;;;179.57;84.57;;;;;;;17.12;42.30;93508.16;4879990;28;20497;-89
2023/12/07 08:02:46;;;;;;;127.25;70.90;;;;;;;17.16;42.20;93512.63;4897672;28;20139;-88
2023/12/07 08:05:12;;;;;;;117.07;65.70;;;;;;;17.13;42.33;93508.88;4956863;28;21032;-93
2023/12/07 08:07:39;;;;;;;136.05;78.85;;;;;;;16.99;42.40;93507.94;4956173;28;20253;-90
2023/12/07 08:10:05;;;;;;;137.88;69.32;;;;;;;17.06;42.38;93512.91;4939087;28;20038;-88
2023/12/07 08:12:31;;;;;;;160.45;76.55;;;;;;;17.16;42.51;93515.34;4970424;28;20159;-91
2023/12/07 08:14:57;;;;;;;212.82;84.20;;;;;;;17.04;41.95;93523.56;4989759;28;20036;-91
2023/12/07 08:17:23;;;;;;;149.80;66.05;;;;;;;17.14;42.12;93524.03;5008519;28;20618;-91
2023/12/07 08:19:48;;;;;;;146.15;82.00;;;;;;;17.16;42.27;93523.53;4990915;28;20036;-91
2023/12/07 08:22:16;;;;;;;158.90;76.95;;;;;;;17.01;42.43;93524.56;4943894;28;20037;-92
2023/12/07 08:24:41;;;;;;;133.15;68.53;;;;;;;17.06;42.47;93523.06;4937253;28;21958;-89
2023/12/07 08:27:09;;;;;;;135.35;63.97;;;;;;;17.14;42.33;93522.03;4913232;28;20045;-89
2023/12/07 08:29:34;;;;;;;130.20;64.45;;;;;;;17.09;42.28;93520.09;4935802;28;20046;-91
2023/12/07 08:32:00;;;;;;;123.88;61.67;;;;;;;17.21;42.28;93522.78;4928266;28;20453;-90
2023/12/07 08:34:26;;;;;;;124.03;63.95;;;;;;;17.15;42.33;93525.53;4914678;28;20065;-89
2023/12/07 08:37:00;;;;;;;120.88;65.10;;;;;;;17.19;42.18;93528.75;4924265;28;20050;-92
2023/12/07 08:39:27;;;;;;;107.30;59.25;;;;;;;17.18;42.40;93524.53;4930643;28;20034;-92
2023/12/07 08:41:53;;;;;;;130.02;64.55;;;;;;;17.19;42.20;93525.28;4941600;28;20042;-91
2023/12/07 08:44:18;;;;;;;112.13;59.08;;;;;;;17.18;42.51;93510.88;4943669;28;20119;-90
2023/12/07 08:46:45;;;;;;;99.43;55.72;;;;;;;17.21;42.11;93522.78;4963628;28;20886;-92
2023/12/07 08:49:11;;;;;;;86.75;49.20;;;;;;;17.20;42.37;93521.31;4948424;28;20131;-90
2023/12/07 08:51:36;;;;;;;94.75;49.30;;;;;;;17.19;42.16;93523.28;4963254;28;21022;-88
2023/12/07 08:54:02;;;;;;;94.45;55.22;;;;;;;17.14;42.56;93526.78;4965119;28;20037;-91
2023/12/07 08:56:28;;;;;;;83.70;47.22;;;;;;;17.21;42.17;93522.78;4989275;28;20288;-91
2023/12/07 08:58:53;;;;;;;79.50;47.05;;;;;;;17.20;42.39;93526.75;4966514;28;20047;-90
2023/12/07 09:01:19;;;;;;;82.15;50.58;;;;;;;17.20;42.45;93522.03;5007775;28;20028;-92
2023/12/07 09:03:45;;;;;;;92.45;49.25;;;;;;;17.23;42.38;93528.50;5006704;28;20032;-91
2023/12/07 09:06:11;;;;;;;99.55;54.53;;;;;;;17.12;42.30;93537.44;5010863;28;20036;-87
2023/12/07 09:08:37;;;;;;;97.13;50.45;;;;;;;17.09;41.98;93536.47;4992311;28;20036;-88
2023/12/07 09:11:05;;;;;;;80.47;46.63;;;;;;;17.08;42.32;93531.50;5014924;28;20177;-91
2023/12/07 09:13:30;;;;;;;83.82;45.80;;;;;;;17.21;42.23;93534.47;4983611;28;20028;-87
2023/12/07 09:15:56;;;;;;;93.13;52.80;;;;;;;17.09;40.44;93539.22;4998977;28;20039;-89
2023/12/07 09:18:25;;;;;;;107.55;48.83;;;;;;;16.92;39.55;93535.00;4993342;28;20107;-93
2023/12/07 09:20:50;;;;;;;100.55;52.05;;;;;;;16.89;39.90;93536.72;4986382;28;20047;-91
2023/12/07 09:23:17;;;;;;;97.95;51.80;;;;;;;16.98;40.47;93535.72;4985969;28;21298;-90
2023/12/07 09:25:43;;;;;;;89.00;46.33;;;;;;;16.82;39.06;93534.50;5009297;28;20043;-91
2023/12/07 09:28:09;;;;;;;129.60;51.90;;;;;;;16.70;37.76;93543.94;4994628;28;20147;-91
2023/12/07 09:30:35;;;;;;;71.13;36.40;;;;;;;16.49;36.85;93539.91;4988442;28;20036;-90
2023/12/07 09:33:07;;;;;;;118.32;48.30;;;;;;;16.44;36.88;93542.19;5003478;28;20349;-90
2023/12/07 09:35:34;;;;;;;107.95;47.50;;;;;;;16.43;37.47;93551.59;4999493;28;20670;-91
2023/12/07 09:37:59;;;;;;;130.20;56.15;;;;;;;16.58;37.60;93547.88;5017667;28;20036;-90
2023/12/07 09:40:25;;;;;;;195.02;88.97;;;;;;;16.55;38.63;93543.41;5014105;28;20036;-94
2023/12/07 09:42:52;;;;;;;158.02;76.75;;;;;;;16.70;39.37;93538.47;5018771;28;20121;-89
2023/12/07 09:45:19;;;;;;;187.65;91.32;;;;;;;16.65;40.84;93533.78;5035046;28;20027;-92
2023/12/07 09:47:49;;;;;;;186.55;86.65;;;;;;;16.78;40.93;93534.75;4992724;28;21898;-91
2023/12/07 09:50:23;;;;;;;170.70;86.78;;;;;;;16.74;41.50;93530.78;4982147;28;21417;-90
2023/12/07 09:52:52;;;;;;;183.93;88.38;;;;;;;16.76;41.35;93525.56;5005699;28;20040;-92
2023/12/07 09:55:18;;;;;;;170.18;77.28;;;;;;;16.91;41.56;93530.75;4983348;28;20181;-92
2023/12/07 09:57:44;;;;;;;178.70;86.00;;;;;;;16.88;41.62;93529.06;5022249;28;20399;-89
2023/12/07 10:00:14;;;;;;;186.68;86.15;;;;;;;16.84;41.86;93520.38;4991591;28;20039;-91
2023/12/07 10:02:50;;;;;;;183.60;86.50;;;;;;;16.86;41.78;93531.53;4996152;28;20051;-89
2023/12/07 10:05:18;;;;;;;172.55;83.68;;;;;;;16.93;41.64;93531.75;5027638;23;20305;-92
2023/12/07 10:07:49;;;;;;;185.18;87.68;;;;;;;16.95;41.85;93534.00;4986034;28;21479;-92
2023/12/07 10:10:14;;;;;;;155.82;78.30;;;;;;;16.93;41.70;93522.81;4982452;28;20044;-89
2023/12/07 10:12:54;;;;;;;119.65;61.92;;;;;;;16.82;40.75;93520.13;4988132;28;20042;-91
2023/12/07 10:15:20;;;;;;;145.32;67.53;;;;;;;16.81;41.41;93515.91;5000320;28;20580;-86
2023/12/07 10:17:47;;;;;;;148.55;71.88;;;;;;;16.84;41.06;93517.63;5000786;28;21034;-86
2023/12/07 10:20:14;;;;;;;163.75;72.22;;;;;;;16.83;41.18;93519.63;5008488;28;20094;-86
2023/12/07 10:22:41;;;;;;;185.88;79.93;;;;;;;16.87;41.17;93516.66;5016429;28;20101;-87
2023/12/07 10:25:07;;;;;;;166.55;77.35;;;;;;;16.78;40.88;93518.38;4994028;28;20909;-86
2023/12/07 10:27:33;;;;;;;164.48;79.63;;;;;;;16.87;40.55;93514.66;4989793;28;20124;-86
2023/12/07 10:29:58;;;;;;;205.35;90.35;;;;;;;16.85;40.45;93508.94;4994344;28;20024;-86
2023/12/07 10:32:24;;;;;;;163.40;82.75;;;;;;;16.97;41.05;93515.88;4995715;28;20036;-85
2023/12/07 10:34:49;;;;;;;165.82;87.50;;;;;;;16.88;41.61;93516.16;5013495;28;20673;-87
2023/12/07 10:37:15;;;;;;;167.55;84.25;;;;;;;17.00;41.58;93508.69;5008988;28;20039;-87
2023/12/07 10:39:44;;;;;;;173.40;89.18;;;;;;;17.01;41.58;93510.16;4980651;28;20036;-88
2023/12/07 10:42:11;;;;;;;161.13;85.55;;;;;;;16.89;41.71;93506.69;4991586;28;20035;-91
2023/12/07 10:44:42;;;;;;;162.88;89.43;;;;;;;16.99;41.64;93510.66;4967527;28;21823;-92
2023/12/07 10:47:10;;;;;;;;;;;;;;;16.95;41.87;93512.16;4977442;28;20896;-90
2023/12/07 10:49:36;;;;;;;144.60;82.63;;;;;;;17.04;41.81;93515.38;5013192;28;19921;-90
2023/12/07 10:52:05;;;;;;;132.73;76.00;;;;;;;16.98;41.82;93503.72;5012148;28;20170;-88
2023/12/07 10:54:41;;;;;;;132.77;73.40;;;;;;;17.00;41.98;93505.94;5003044;28;20142;-88
2023/12/07 10:57:06;;;;;;;154.25;80.07;;;;;;;17.00;41.93;93503.22;5022525;28;20032;-89
2023/12/07 10:59:33;;;;;;;157.50;81.25;;;;;;;17.04;41.75;93515.38;4981921;28;20038;-88
2023/12/07 11:01:58;;;;;;;159.95;84.85;;;;;;;17.06;42.05;93507.44;4979440;28;20474;-91
2023/12/07 11:04:24;;;;;;;158.38;82.82;;;;;;;17.08;42.08;93510.41;4981748;28;20024;-89
2023/12/07 11:06:49;;;;;;;159.23;85.45;;;;;;;17.06;41.90;93510.16;4952199;28;20080;-90
2023/12/07 11:09:19;;;;;;;144.98;78.30;;;;;;;17.09;42.19;93511.16;4963654;28;20281;-91
2023/12/07 11:11:49;;;;;;;158.33;86.40;;;;;;;17.00;41.90;93500.47;4953959;28;20087;-89
2023/12/07 11:14:15;;;;;;;141.90;82.30;;;;;;;16.98;42.18;93500.97;4959338;28;20051;-90